sensor_id;sensor_type;location;lat;lon;timestamp;P1;durP1;ratioP1;P2;durP2;ratioP2
34200;SDS011;20469;55.638;37.670;2022-10-19T00:01:14;6.20;;;1.70;;
34200;SDS011;20469;55.638;37.670;2022-10-19T00:03:47;3.60;;;1.70;;
34200;SDS011;20469;55.638;37.670;2022-10-19T00:06:20;2.65;;;2.00;;
34200;SDS011;20469;55.638;37.670;2022-10-19T00:08:53;3.55;;;1.73;;
34200;SDS011;20469;55.638;37.670;2022-10-19T00:11:39;3.03;;;1.40;;
34200;SDS011;20469;55.638;37.670;2022-10-19T00:14:10;2.53;;;1.42;;
34200;SDS011;20469;55.638;37.670;2022-10-19T00:16:43;3.35;;;1.70;;
34200;SDS011;20469;55.638;37.670;2022-10-19T00:19:15;2.47;;;1.60;;
34200;SDS011;20469;55.638;37.670;2022-10-19T00:21:46;3.30;;;1.70;;
34200;SDS011;20469;55.638;37.670;2022-10-19T00:24:13;2.08;;;1.42;;
34200;SDS011;20469;55.638;37.670;2022-10-19T00:26:41;4.05;;;1.60;;
34200;SDS011;20469;55.638;37.670;2022-10-19T00:29:10;2.25;;;1.30;;
34200;SDS011;20469;55.638;37.670;2022-10-19T00:31:39;2.00;;;1.10;;
34200;SDS011;20469;55.638;37.670;2022-10-19T00:34:06;2.05;;;1.52;;
34200;SDS011;20469;55.638;37.670;2022-10-19T00:36:36;3.40;;;1.50;;
34200;SDS011;20469;55.638;37.670;2022-10-19T00:39:07;2.20;;;1.60;;
34200;SDS011;20469;55.638;37.670;2022-10-19T00:41:37;5.22;;;1.30;;
34200;SDS011;20469;55.638;37.670;2022-10-19T00:44:06;3.55;;;1.60;;
34200;SDS011;20469;55.638;37.670;2022-10-19T00:47:13;2.03;;;1.60;;
34200;SDS011;20469;55.638;37.670;2022-10-19T00:49:41;2.95;;;1.30;;
34200;SDS011;20469;55.638;37.670;2022-10-19T00:52:12;1.98;;;1.40;;
34200;SDS011;20469;55.638;37.670;2022-10-19T00:54:43;2.72;;;1.45;;
34200;SDS011;20469;55.638;37.670;2022-10-19T00:57:12;2.03;;;1.40;;
34200;SDS011;20469;55.638;37.670;2022-10-19T00:59:41;2.55;;;1.50;;
34200;SDS011;20469;55.638;37.670;2022-10-19T01:02:10;3.25;;;1.55;;
34200;SDS011;20469;55.638;37.670;2022-10-19T01:04:39;2.67;;;1.60;;
34200;SDS011;20469;55.638;37.670;2022-10-19T01:07:11;3.42;;;1.50;;
34200;SDS011;20469;55.638;37.670;2022-10-19T01:09:39;3.47;;;1.55;;
34200;SDS011;20469;55.638;37.670;2022-10-19T01:15:05;5.43;;;1.60;;
34200;SDS011;20469;55.638;37.670;2022-10-19T01:17:47;2.95;;;1.60;;
34200;SDS011;20469;55.638;37.670;2022-10-19T01:20:39;3.00;;;1.50;;
34200;SDS011;20469;55.638;37.670;2022-10-19T01:23:28;4.85;;;1.40;;
34200;SDS011;20469;55.638;37.670;2022-10-19T01:26:24;4.78;;;1.63;;
34200;SDS011;20469;55.638;37.670;2022-10-19T01:29:16;3.60;;;1.50;;
34200;SDS011;20469;55.638;37.670;2022-10-19T01:31:56;3.17;;;1.45;;
34200;SDS011;20469;55.638;37.670;2022-10-19T01:34:33;3.70;;;1.60;;
34200;SDS011;20469;55.638;37.670;2022-10-19T01:37:14;2.55;;;1.30;;
34200;SDS011;20469;55.638;37.670;2022-10-19T01:39:52;2.88;;;1.48;;
34200;SDS011;20469;55.638;37.670;2022-10-19T01:42:41;4.07;;;1.65;;
34200;SDS011;20469;55.638;37.670;2022-10-19T01:45:17;5.10;;;1.60;;
34200;SDS011;20469;55.638;37.670;2022-10-19T01:47:51;4.53;;;1.77;;
34200;SDS011;20469;55.638;37.670;2022-10-19T01:50:30;2.15;;;1.55;;
34200;SDS011;20469;55.638;37.670;2022-10-19T01:53:09;3.30;;;1.77;;
34200;SDS011;20469;55.638;37.670;2022-10-19T01:55:40;2.45;;;1.50;;
34200;SDS011;20469;55.638;37.670;2022-10-19T01:58:12;2.60;;;1.60;;
34200;SDS011;20469;55.638;37.670;2022-10-19T02:00:44;5.40;;;1.83;;
34200;SDS011;20469;55.638;37.670;2022-10-19T02:03:15;3.45;;;1.75;;
34200;SDS011;20469;55.638;37.670;2022-10-19T02:05:44;4.20;;;1.60;;
34200;SDS011;20469;55.638;37.670;2022-10-19T02:08:14;3.90;;;1.60;;
34200;SDS011;20469;55.638;37.670;2022-10-19T02:10:47;2.15;;;1.48;;
34200;SDS011;20469;55.638;37.670;2022-10-19T02:13:15;3.42;;;1.77;;
34200;SDS011;20469;55.638;37.670;2022-10-19T02:15:46;2.92;;;1.95;;
34200;SDS011;20469;55.638;37.670;2022-10-19T02:18:20;4.77;;;1.67;;
34200;SDS011;20469;55.638;37.670;2022-10-19T02:20:54;2.13;;;1.40;;
34200;SDS011;20469;55.638;37.670;2022-10-19T02:23:23;5.53;;;1.67;;
34200;SDS011;20469;55.638;37.670;2022-10-19T02:25:53;3.08;;;1.48;;
34200;SDS011;20469;55.638;37.670;2022-10-19T02:28:21;4.50;;;1.85;;
34200;SDS011;20469;55.638;37.670;2022-10-19T02:30:49;4.43;;;1.58;;
34200;SDS011;20469;55.638;37.670;2022-10-19T02:33:16;3.67;;;1.80;;
34200;SDS011;20469;55.638;37.670;2022-10-19T02:35:44;2.08;;;1.73;;
34200;SDS011;20469;55.638;37.670;2022-10-19T02:38:15;4.15;;;1.70;;
34200;SDS011;20469;55.638;37.670;2022-10-19T02:40:48;3.15;;;1.63;;
34200;SDS011;20469;55.638;37.670;2022-10-19T02:43:33;4.43;;;1.52;;
34200;SDS011;20469;55.638;37.670;2022-10-19T02:46:06;3.15;;;1.60;;
34200;SDS011;20469;55.638;37.670;2022-10-19T02:48:41;2.83;;;1.75;;
34200;SDS011;20469;55.638;37.670;2022-10-19T02:53:52;4.20;;;1.92;;
34200;SDS011;20469;55.638;37.670;2022-10-19T02:56:20;1.70;;;1.55;;
34200;SDS011;20469;55.638;37.670;2022-10-19T02:58:48;3.20;;;1.70;;
34200;SDS011;20469;55.638;37.670;2022-10-19T03:01:16;3.50;;;1.85;;
34200;SDS011;20469;55.638;37.670;2022-10-19T03:03:44;3.60;;;1.80;;
34200;SDS011;20469;55.638;37.670;2022-10-19T03:06:11;3.83;;;2.10;;
34200;SDS011;20469;55.638;37.670;2022-10-19T03:08:39;4.85;;;1.70;;
34200;SDS011;20469;55.638;37.670;2022-10-19T03:11:07;4.63;;;1.67;;
34200;SDS011;20469;55.638;37.670;2022-10-19T03:13:35;2.78;;;1.60;;
34200;SDS011;20469;55.638;37.670;2022-10-19T03:16:05;2.40;;;1.88;;
34200;SDS011;20469;55.638;37.670;2022-10-19T03:18:33;2.55;;;1.83;;
34200;SDS011;20469;55.638;37.670;2022-10-19T03:21:02;2.35;;;1.50;;
34200;SDS011;20469;55.638;37.670;2022-10-19T03:23:32;4.65;;;1.88;;
34200;SDS011;20469;55.638;37.670;2022-10-19T03:26:00;2.22;;;1.63;;
34200;SDS011;20469;55.638;37.670;2022-10-19T03:28:28;3.40;;;1.80;;
34200;SDS011;20469;55.638;37.670;2022-10-19T03:30:56;4.35;;;1.90;;
34200;SDS011;20469;55.638;37.670;2022-10-19T03:33:24;3.58;;;2.17;;
34200;SDS011;20469;55.638;37.670;2022-10-19T03:38:39;3.75;;;2.00;;
34200;SDS011;20469;55.638;37.670;2022-10-19T03:41:07;2.60;;;1.75;;
34200;SDS011;20469;55.638;37.670;2022-10-19T03:43:35;4.93;;;2.00;;
34200;SDS011;20469;55.638;37.670;2022-10-19T03:46:03;3.28;;;1.88;;
34200;SDS011;20469;55.638;37.670;2022-10-19T03:48:31;2.38;;;1.90;;
34200;SDS011;20469;55.638;37.670;2022-10-19T03:51:00;3.20;;;2.10;;
34200;SDS011;20469;55.638;37.670;2022-10-19T03:53:29;3.10;;;1.92;;
34200;SDS011;20469;55.638;37.670;2022-10-19T03:56:01;4.25;;;2.30;;
34200;SDS011;20469;55.638;37.670;2022-10-19T03:58:30;6.90;;;2.33;;
34200;SDS011;20469;55.638;37.670;2022-10-19T04:00:59;7.70;;;2.40;;
34200;SDS011;20469;55.638;37.670;2022-10-19T04:03:27;8.68;;;3.30;;
34200;SDS011;20469;55.638;37.670;2022-10-19T04:06:03;5.18;;;2.60;;
34200;SDS011;20469;55.638;37.670;2022-10-19T04:08:32;7.57;;;2.80;;
34200;SDS011;20469;55.638;37.670;2022-10-19T04:11:00;6.10;;;2.55;;
34200;SDS011;20469;55.638;37.670;2022-10-19T04:13:31;6.25;;;2.83;;
34200;SDS011;20469;55.638;37.670;2022-10-19T04:15:59;5.32;;;3.35;;
34200;SDS011;20469;55.638;37.670;2022-10-19T04:18:27;4.68;;;3.40;;
34200;SDS011;20469;55.638;37.670;2022-10-19T04:20:59;7.78;;;3.70;;
34200;SDS011;20469;55.638;37.670;2022-10-19T04:25:59;9.32;;;3.40;;
34200;SDS011;20469;55.638;37.670;2022-10-19T04:28:31;7.70;;;3.90;;
34200;SDS011;20469;55.638;37.670;2022-10-19T04:31:00;5.95;;;3.78;;
34200;SDS011;20469;55.638;37.670;2022-10-19T04:33:28;7.07;;;3.78;;
34200;SDS011;20469;55.638;37.670;2022-10-19T04:35:57;10.02;;;4.53;;
34200;SDS011;20469;55.638;37.670;2022-10-19T04:38:28;7.35;;;5.05;;
34200;SDS011;20469;55.638;37.670;2022-10-19T04:40:59;10.18;;;5.40;;
34200;SDS011;20469;55.638;37.670;2022-10-19T04:43:32;10.73;;;5.40;;
34200;SDS011;20469;55.638;37.670;2022-10-19T04:46:04;9.02;;;5.60;;
34200;SDS011;20469;55.638;37.670;2022-10-19T04:51:01;10.52;;;5.18;;
34200;SDS011;20469;55.638;37.670;2022-10-19T04:53:29;8.77;;;5.50;;
34200;SDS011;20469;55.638;37.670;2022-10-19T04:55:57;8.13;;;5.28;;
34200;SDS011;20469;55.638;37.670;2022-10-19T04:58:24;11.40;;;5.82;;
34200;SDS011;20469;55.638;37.670;2022-10-19T05:00:52;12.80;;;6.32;;
34200;SDS011;20469;55.638;37.670;2022-10-19T05:03:20;10.10;;;6.07;;
34200;SDS011;20469;55.638;37.670;2022-10-19T05:05:48;9.70;;;5.40;;
34200;SDS011;20469;55.638;37.670;2022-10-19T05:08:15;11.40;;;6.07;;
34200;SDS011;20469;55.638;37.670;2022-10-19T05:10:43;10.57;;;6.70;;
34200;SDS011;20469;55.638;37.670;2022-10-19T05:13:13;12.23;;;6.68;;
34200;SDS011;20469;55.638;37.670;2022-10-19T05:15:41;12.15;;;6.95;;
34200;SDS011;20469;55.638;37.670;2022-10-19T05:18:08;10.50;;;7.25;;
34200;SDS011;20469;55.638;37.670;2022-10-19T05:20:36;8.65;;;6.60;;
34200;SDS011;20469;55.638;37.670;2022-10-19T05:23:04;13.52;;;7.10;;
34200;SDS011;20469;55.638;37.670;2022-10-19T05:25:33;8.50;;;6.10;;
34200;SDS011;20469;55.638;37.670;2022-10-19T05:28:01;9.23;;;6.10;;
34200;SDS011;20469;55.638;37.670;2022-10-19T05:30:28;8.68;;;6.13;;
34200;SDS011;20469;55.638;37.670;2022-10-19T05:32:57;9.38;;;5.93;;
34200;SDS011;20469;55.638;37.670;2022-10-19T05:35:27;9.48;;;5.43;;
34200;SDS011;20469;55.638;37.670;2022-10-19T05:37:58;14.13;;;7.05;;
34200;SDS011;20469;55.638;37.670;2022-10-19T05:40:28;10.75;;;6.57;;
34200;SDS011;20469;55.638;37.670;2022-10-19T05:42:58;11.32;;;6.43;;
34200;SDS011;20469;55.638;37.670;2022-10-19T05:45:28;9.10;;;6.25;;
34200;SDS011;20469;55.638;37.670;2022-10-19T05:47:58;8.63;;;6.03;;
34200;SDS011;20469;55.638;37.670;2022-10-19T05:50:30;11.80;;;6.43;;
34200;SDS011;20469;55.638;37.670;2022-10-19T05:53:01;10.50;;;6.00;;
34200;SDS011;20469;55.638;37.670;2022-10-19T05:55:33;7.97;;;5.93;;
34200;SDS011;20469;55.638;37.670;2022-10-19T05:58:01;10.48;;;7.05;;
34200;SDS011;20469;55.638;37.670;2022-10-19T06:00:29;8.98;;;6.53;;
34200;SDS011;20469;55.638;37.670;2022-10-19T06:02:57;10.98;;;6.93;;
34200;SDS011;20469;55.638;37.670;2022-10-19T06:05:24;13.43;;;7.13;;
34200;SDS011;20469;55.638;37.670;2022-10-19T06:07:52;10.57;;;6.70;;
34200;SDS011;20469;55.638;37.670;2022-10-19T06:10:19;11.80;;;7.15;;
34200;SDS011;20469;55.638;37.670;2022-10-19T06:12:47;11.85;;;7.10;;
34200;SDS011;20469;55.638;37.670;2022-10-19T06:15:15;9.85;;;7.00;;
34200;SDS011;20469;55.638;37.670;2022-10-19T06:17:42;12.80;;;6.80;;
34200;SDS011;20469;55.638;37.670;2022-10-19T06:20:10;9.70;;;6.60;;
34200;SDS011;20469;55.638;37.670;2022-10-19T06:22:39;13.32;;;7.75;;
34200;SDS011;20469;55.638;37.670;2022-10-19T06:25:08;11.20;;;7.05;;
34200;SDS011;20469;55.638;37.670;2022-10-19T06:27:37;13.05;;;6.68;;
34200;SDS011;20469;55.638;37.670;2022-10-19T06:30:05;9.77;;;6.80;;
34200;SDS011;20469;55.638;37.670;2022-10-19T06:32:33;8.63;;;6.95;;
34200;SDS011;20469;55.638;37.670;2022-10-19T06:35:01;9.15;;;6.90;;
34200;SDS011;20469;55.638;37.670;2022-10-19T06:37:29;11.52;;;6.70;;
34200;SDS011;20469;55.638;37.670;2022-10-19T06:39:57;10.55;;;6.80;;
34200;SDS011;20469;55.638;37.670;2022-10-19T06:44:58;13.25;;;6.57;;
34200;SDS011;20469;55.638;37.670;2022-10-19T06:47:26;14.38;;;7.47;;
34200;SDS011;20469;55.638;37.670;2022-10-19T06:52:26;12.80;;;7.35;;
34200;SDS011;20469;55.638;37.670;2022-10-19T06:54:54;10.90;;;6.50;;
34200;SDS011;20469;55.638;37.670;2022-10-19T06:57:22;12.13;;;7.13;;
34200;SDS011;20469;55.638;37.670;2022-10-19T06:59:49;9.63;;;6.53;;
34200;SDS011;20469;55.638;37.670;2022-10-19T07:02:19;10.75;;;6.80;;
34200;SDS011;20469;55.638;37.670;2022-10-19T07:04:47;12.10;;;7.25;;
34200;SDS011;20469;55.638;37.670;2022-10-19T07:07:14;10.90;;;7.63;;
34200;SDS011;20469;55.638;37.670;2022-10-19T07:09:42;10.70;;;7.03;;
34200;SDS011;20469;55.638;37.670;2022-10-19T07:12:10;12.95;;;7.32;;
34200;SDS011;20469;55.638;37.670;2022-10-19T07:14:37;13.50;;;7.28;;
34200;SDS011;20469;55.638;37.670;2022-10-19T07:17:05;10.70;;;7.18;;
34200;SDS011;20469;55.638;37.670;2022-10-19T07:19:33;13.13;;;8.10;;
34200;SDS011;20469;55.638;37.670;2022-10-19T07:22:01;13.05;;;7.85;;
34200;SDS011;20469;55.638;37.670;2022-10-19T07:24:29;9.57;;;8.32;;
34200;SDS011;20469;55.638;37.670;2022-10-19T07:26:56;12.63;;;9.60;;
34200;SDS011;20469;55.638;37.670;2022-10-19T07:29:25;10.75;;;8.00;;
34200;SDS011;20469;55.638;37.670;2022-10-19T07:31:52;14.82;;;7.90;;
34200;SDS011;20469;55.638;37.670;2022-10-19T07:34:20;11.52;;;8.15;;
34200;SDS011;20469;55.638;37.670;2022-10-19T07:39:20;14.70;;;7.28;;
34200;SDS011;20469;55.638;37.670;2022-10-19T07:41:48;15.00;;;7.75;;
34200;SDS011;20469;55.638;37.670;2022-10-19T07:44:17;10.98;;;7.22;;
34200;SDS011;20469;55.638;37.670;2022-10-19T07:46:45;17.85;;;7.00;;
34200;SDS011;20469;55.638;37.670;2022-10-19T07:49:14;15.38;;;7.60;;
34200;SDS011;20469;55.638;37.670;2022-10-19T07:51:44;17.00;;;7.97;;
34200;SDS011;20469;55.638;37.670;2022-10-19T07:54:12;15.40;;;7.82;;
34200;SDS011;20469;55.638;37.670;2022-10-19T07:56:40;10.70;;;7.35;;
34200;SDS011;20469;55.638;37.670;2022-10-19T07:59:08;12.27;;;6.80;;
34200;SDS011;20469;55.638;37.670;2022-10-19T08:01:37;15.43;;;6.90;;
34200;SDS011;20469;55.638;37.670;2022-10-19T08:04:07;13.27;;;6.53;;
34200;SDS011;20469;55.638;37.670;2022-10-19T08:06:55;15.27;;;6.35;;
34200;SDS011;20469;55.638;37.670;2022-10-19T08:09:22;6.57;;;5.78;;
34200;SDS011;20469;55.638;37.670;2022-10-19T08:12:10;8.48;;;6.13;;
34200;SDS011;20469;55.638;37.670;2022-10-19T08:14:41;9.32;;;6.55;;
34200;SDS011;20469;55.638;37.670;2022-10-19T08:17:10;7.88;;;6.15;;
34200;SDS011;20469;55.638;37.670;2022-10-19T08:19:42;8.90;;;6.05;;
34200;SDS011;20469;55.638;37.670;2022-10-19T08:22:11;10.93;;;7.00;;
34200;SDS011;20469;55.638;37.670;2022-10-19T08:24:39;14.25;;;6.75;;
34200;SDS011;20469;55.638;37.670;2022-10-19T08:27:06;12.52;;;6.53;;
34200;SDS011;20469;55.638;37.670;2022-10-19T08:29:34;11.80;;;6.93;;
34200;SDS011;20469;55.638;37.670;2022-10-19T08:32:01;10.50;;;6.57;;
34200;SDS011;20469;55.638;37.670;2022-10-19T08:34:28;10.75;;;6.85;;
34200;SDS011;20469;55.638;37.670;2022-10-19T08:36:59;12.77;;;7.38;;
34200;SDS011;20469;55.638;37.670;2022-10-19T08:39:45;10.23;;;6.57;;
34200;SDS011;20469;55.638;37.670;2022-10-19T08:42:15;14.57;;;8.27;;
34200;SDS011;20469;55.638;37.670;2022-10-19T08:50:33;10.25;;;7.70;;
34200;SDS011;20469;55.638;37.670;2022-10-19T08:53:06;11.63;;;7.53;;
34200;SDS011;20469;55.638;37.670;2022-10-19T08:58:24;9.18;;;6.00;;
34200;SDS011;20469;55.638;37.670;2022-10-19T09:01:13;7.88;;;6.25;;
34200;SDS011;20469;55.638;37.670;2022-10-19T09:03:51;7.53;;;5.40;;
34200;SDS011;20469;55.638;37.670;2022-10-19T09:06:28;9.90;;;5.20;;
34200;SDS011;20469;55.638;37.670;2022-10-19T09:09:03;7.97;;;5.28;;
34200;SDS011;20469;55.638;37.670;2022-10-19T09:11:33;7.43;;;5.25;;
34200;SDS011;20469;55.638;37.670;2022-10-19T09:14:09;8.02;;;5.07;;
34200;SDS011;20469;55.638;37.670;2022-10-19T09:16:42;8.48;;;4.68;;
34200;SDS011;20469;55.638;37.670;2022-10-19T09:19:12;7.68;;;5.22;;
34200;SDS011;20469;55.638;37.670;2022-10-19T09:21:49;6.78;;;4.60;;
34200;SDS011;20469;55.638;37.670;2022-10-19T09:24:27;6.38;;;4.70;;
34200;SDS011;20469;55.638;37.670;2022-10-19T09:26:58;8.65;;;4.75;;
34200;SDS011;20469;55.638;37.670;2022-10-19T09:32:13;7.60;;;5.90;;
34200;SDS011;20469;55.638;37.670;2022-10-19T09:34:48;9.88;;;5.55;;
34200;SDS011;20469;55.638;37.670;2022-10-19T09:37:20;6.97;;;5.30;;
34200;SDS011;20469;55.638;37.670;2022-10-19T09:39:53;7.60;;;4.70;;
34200;SDS011;20469;55.638;37.670;2022-10-19T09:42:23;7.38;;;4.82;;
34200;SDS011;20469;55.638;37.670;2022-10-19T09:44:58;5.47;;;4.47;;
34200;SDS011;20469;55.638;37.670;2022-10-19T09:47:32;7.73;;;5.07;;
34200;SDS011;20469;55.638;37.670;2022-10-19T09:50:19;8.20;;;5.00;;
34200;SDS011;20469;55.638;37.670;2022-10-19T09:52:52;6.85;;;5.00;;
34200;SDS011;20469;55.638;37.670;2022-10-19T09:55:28;8.50;;;5.35;;
34200;SDS011;20469;55.638;37.670;2022-10-19T09:58:16;12.27;;;6.30;;
34200;SDS011;20469;55.638;37.670;2022-10-19T10:00:49;9.02;;;6.63;;
34200;SDS011;20469;55.638;37.670;2022-10-19T10:03:25;9.52;;;6.78;;
34200;SDS011;20469;55.638;37.670;2022-10-19T10:05:57;9.88;;;7.60;;
34200;SDS011;20469;55.638;37.670;2022-10-19T10:08:34;9.68;;;7.82;;
34200;SDS011;20469;55.638;37.670;2022-10-19T10:13:47;13.07;;;8.30;;
34200;SDS011;20469;55.638;37.670;2022-10-19T10:16:19;12.30;;;8.73;;
34200;SDS011;20469;55.638;37.670;2022-10-19T10:18:53;11.02;;;8.70;;
34200;SDS011;20469;55.638;37.670;2022-10-19T10:21:27;13.13;;;8.95;;
34200;SDS011;20469;55.638;37.670;2022-10-19T10:24:04;11.40;;;9.10;;
34200;SDS011;20469;55.638;37.670;2022-10-19T10:26:46;10.80;;;9.43;;
34200;SDS011;20469;55.638;37.670;2022-10-19T10:32:07;15.35;;;11.32;;
34200;SDS011;20469;55.638;37.670;2022-10-19T10:34:40;18.45;;;13.48;;
34200;SDS011;20469;55.638;37.670;2022-10-19T10:37:22;19.05;;;13.75;;
34200;SDS011;20469;55.638;37.670;2022-10-19T10:39:56;17.50;;;13.20;;
34200;SDS011;20469;55.638;37.670;2022-10-19T10:42:35;19.52;;;13.30;;
34200;SDS011;20469;55.638;37.670;2022-10-19T10:45:15;20.42;;;14.50;;
34200;SDS011;20469;55.638;37.670;2022-10-19T10:47:46;20.45;;;14.00;;
34200;SDS011;20469;55.638;37.670;2022-10-19T10:50:19;17.55;;;11.63;;
34200;SDS011;20469;55.638;37.670;2022-10-19T10:52:55;17.23;;;11.23;;
34200;SDS011;20469;55.638;37.670;2022-10-19T10:55:29;19.77;;;11.70;;
34200;SDS011;20469;55.638;37.670;2022-10-19T10:58:04;15.48;;;11.55;;
34200;SDS011;20469;55.638;37.670;2022-10-19T11:00:40;17.48;;;11.13;;
34200;SDS011;20469;55.638;37.670;2022-10-19T11:03:12;15.90;;;10.43;;
34200;SDS011;20469;55.638;37.670;2022-10-19T11:05:47;14.52;;;9.70;;
34200;SDS011;20469;55.638;37.670;2022-10-19T11:08:32;14.48;;;9.18;;
34200;SDS011;20469;55.638;37.670;2022-10-19T11:11:24;14.52;;;9.77;;
34200;SDS011;20469;55.638;37.670;2022-10-19T11:13:58;14.38;;;8.93;;
34200;SDS011;20469;55.638;37.670;2022-10-19T11:16:47;14.05;;;9.25;;
34200;SDS011;20469;55.638;37.670;2022-10-19T11:19:23;15.40;;;9.43;;
34200;SDS011;20469;55.638;37.670;2022-10-19T11:22:01;14.60;;;8.55;;
34200;SDS011;20469;55.638;37.670;2022-10-19T11:25:05;13.60;;;8.85;;
34200;SDS011;20469;55.638;37.670;2022-10-19T11:33:51;12.85;;;8.82;;
34200;SDS011;20469;55.638;37.670;2022-10-19T11:36:34;16.33;;;10.48;;
34200;SDS011;20469;55.638;37.670;2022-10-19T11:39:20;15.45;;;9.32;;
34200;SDS011;20469;55.638;37.670;2022-10-19T11:42:03;14.23;;;9.38;;
34200;SDS011;20469;55.638;37.670;2022-10-19T11:44:49;11.50;;;8.02;;
34200;SDS011;20469;55.638;37.670;2022-10-19T11:47:32;11.95;;;8.02;;
34200;SDS011;20469;55.638;37.670;2022-10-19T11:50:38;10.10;;;7.20;;
34200;SDS011;20469;55.638;37.670;2022-10-19T11:56:29;8.57;;;6.07;;
34200;SDS011;20469;55.638;37.670;2022-10-19T12:02:36;9.77;;;6.18;;
34200;SDS011;20469;55.638;37.670;2022-10-19T12:05:18;9.07;;;6.90;;
34200;SDS011;20469;55.638;37.670;2022-10-19T12:11:20;7.93;;;5.90;;
34200;SDS011;20469;55.638;37.670;2022-10-19T12:14:09;9.10;;;5.88;;
34200;SDS011;20469;55.638;37.670;2022-10-19T12:16:46;8.98;;;5.82;;
34200;SDS011;20469;55.638;37.670;2022-10-19T12:19:22;8.15;;;5.90;;
34200;SDS011;20469;55.638;37.670;2022-10-19T12:21:54;8.50;;;6.05;;
34200;SDS011;20469;55.638;37.670;2022-10-19T12:24:28;9.07;;;6.13;;
34200;SDS011;20469;55.638;37.670;2022-10-19T12:27:02;9.48;;;6.25;;
34200;SDS011;20469;55.638;37.670;2022-10-19T12:29:33;8.95;;;6.88;;
34200;SDS011;20469;55.638;37.670;2022-10-19T12:32:06;8.80;;;6.57;;
34200;SDS011;20469;55.638;37.670;2022-10-19T12:34:49;10.32;;;5.97;;
34200;SDS011;20469;55.638;37.670;2022-10-19T12:37:27;14.20;;;6.32;;
34200;SDS011;20469;55.638;37.670;2022-10-19T12:43:06;8.80;;;6.40;;
34200;SDS011;20469;55.638;37.670;2022-10-19T12:45:43;7.97;;;6.30;;
34200;SDS011;20469;55.638;37.670;2022-10-19T12:48:20;8.00;;;5.80;;
34200;SDS011;20469;55.638;37.670;2022-10-19T12:50:56;8.70;;;6.03;;
34200;SDS011;20469;55.638;37.670;2022-10-19T12:53:30;8.23;;;6.20;;
34200;SDS011;20469;55.638;37.670;2022-10-19T12:56:06;10.40;;;6.47;;
34200;SDS011;20469;55.638;37.670;2022-10-19T12:58:45;8.05;;;6.80;;
34200;SDS011;20469;55.638;37.670;2022-10-19T13:01:24;9.45;;;5.90;;
34200;SDS011;20469;55.638;37.670;2022-10-19T13:06:43;10.07;;;6.40;;
34200;SDS011;20469;55.638;37.670;2022-10-19T13:14:57;8.45;;;6.05;;
34200;SDS011;20469;55.638;37.670;2022-10-19T13:17:37;10.40;;;6.57;;
34200;SDS011;20469;55.638;37.670;2022-10-19T13:20:39;12.02;;;6.82;;
34200;SDS011;20469;55.638;37.670;2022-10-19T13:26:21;15.18;;;8.43;;
34200;SDS011;20469;55.638;37.670;2022-10-19T13:28:56;11.93;;;7.88;;
34200;SDS011;20469;55.638;37.670;2022-10-19T13:31:27;11.18;;;9.00;;
34200;SDS011;20469;55.638;37.670;2022-10-19T13:33:56;10.88;;;8.60;;
34200;SDS011;20469;55.638;37.670;2022-10-19T13:36:25;10.75;;;8.40;;
34200;SDS011;20469;55.638;37.670;2022-10-19T13:39:00;11.82;;;9.45;;
34200;SDS011;20469;55.638;37.670;2022-10-19T13:44:20;14.50;;;8.18;;
34200;SDS011;20469;55.638;37.670;2022-10-19T13:46:57;8.77;;;6.80;;
34200;SDS011;20469;55.638;37.670;2022-10-19T13:58:22;8.32;;;6.40;;
34200;SDS011;20469;55.638;37.670;2022-10-19T14:01:19;7.70;;;6.00;;
34200;SDS011;20469;55.638;37.670;2022-10-19T14:04:12;9.02;;;6.88;;
34200;SDS011;20469;55.638;37.670;2022-10-19T14:06:55;9.27;;;6.25;;
34200;SDS011;20469;55.638;37.670;2022-10-19T14:09:39;11.35;;;6.43;;
34200;SDS011;20469;55.638;37.670;2022-10-19T14:12:26;9.43;;;6.57;;
34200;SDS011;20469;55.638;37.670;2022-10-19T14:14:57;11.40;;;6.65;;
34200;SDS011;20469;55.638;37.670;2022-10-19T14:17:28;10.70;;;7.07;;
34200;SDS011;20469;55.638;37.670;2022-10-19T14:20:01;10.50;;;6.93;;
34200;SDS011;20469;55.638;37.670;2022-10-19T14:22:32;10.43;;;6.70;;
34200;SDS011;20469;55.638;37.670;2022-10-19T14:25:14;10.13;;;6.63;;
34200;SDS011;20469;55.638;37.670;2022-10-19T14:27:50;10.43;;;6.60;;
34200;SDS011;20469;55.638;37.670;2022-10-19T14:30:27;15.43;;;7.00;;
34200;SDS011;20469;55.638;37.670;2022-10-19T14:33:01;19.42;;;7.03;;
34200;SDS011;20469;55.638;37.670;2022-10-19T14:35:36;13.85;;;7.68;;
34200;SDS011;20469;55.638;37.670;2022-10-19T14:38:14;10.95;;;7.28;;
34200;SDS011;20469;55.638;37.670;2022-10-19T14:40:50;12.00;;;7.50;;
34200;SDS011;20469;55.638;37.670;2022-10-19T14:43:23;12.80;;;7.63;;
34200;SDS011;20469;55.638;37.670;2022-10-19T14:46:14;15.98;;;7.63;;
34200;SDS011;20469;55.638;37.670;2022-10-19T14:48:42;11.07;;;7.75;;
34200;SDS011;20469;55.638;37.670;2022-10-19T14:51:24;11.23;;;7.32;;
34200;SDS011;20469;55.638;37.670;2022-10-19T14:54:06;12.60;;;8.48;;
34200;SDS011;20469;55.638;37.670;2022-10-19T14:56:47;17.58;;;8.73;;
34200;SDS011;20469;55.638;37.670;2022-10-19T14:59:30;14.10;;;8.93;;
34200;SDS011;20469;55.638;37.670;2022-10-19T15:02:26;12.02;;;9.38;;
34200;SDS011;20469;55.638;37.670;2022-10-19T15:05:00;14.30;;;8.70;;
34200;SDS011;20469;55.638;37.670;2022-10-19T15:07:33;18.77;;;8.50;;
34200;SDS011;20469;55.638;37.670;2022-10-19T15:10:07;17.50;;;9.60;;
34200;SDS011;20469;55.638;37.670;2022-10-19T15:12:47;19.77;;;9.13;;
34200;SDS011;20469;55.638;37.670;2022-10-19T15:15:20;12.93;;;9.30;;
34200;SDS011;20469;55.638;37.670;2022-10-19T15:17:55;14.05;;;9.60;;
34200;SDS011;20469;55.638;37.670;2022-10-19T15:20:36;16.48;;;9.35;;
34200;SDS011;20469;55.638;37.670;2022-10-19T15:23:31;13.80;;;8.85;;
34200;SDS011;20469;55.638;37.670;2022-10-19T15:28:53;11.70;;;8.60;;
34200;SDS011;20469;55.638;37.670;2022-10-19T15:31:32;11.68;;;8.82;;
34200;SDS011;20469;55.638;37.670;2022-10-19T15:34:02;10.43;;;7.68;;
34200;SDS011;20469;55.638;37.670;2022-10-19T15:36:31;11.48;;;8.15;;
34200;SDS011;20469;55.638;37.670;2022-10-19T15:39:00;13.48;;;9.18;;
34200;SDS011;20469;55.638;37.670;2022-10-19T15:41:51;14.45;;;8.15;;
34200;SDS011;20469;55.638;37.670;2022-10-19T15:47:17;12.27;;;7.47;;
34200;SDS011;20469;55.638;37.670;2022-10-19T15:49:53;12.82;;;7.70;;
34200;SDS011;20469;55.638;37.670;2022-10-19T15:52:24;11.02;;;7.85;;
34200;SDS011;20469;55.638;37.670;2022-10-19T15:54:56;13.18;;;8.27;;
34200;SDS011;20469;55.638;37.670;2022-10-19T15:57:28;12.20;;;8.13;;
34200;SDS011;20469;55.638;37.670;2022-10-19T16:00:00;39.25;;;27.85;;
34200;SDS011;20469;55.638;37.670;2022-10-19T16:02:34;11.90;;;7.22;;
34200;SDS011;20469;55.638;37.670;2022-10-19T16:05:02;12.13;;;7.00;;
34200;SDS011;20469;55.638;37.670;2022-10-19T16:07:33;8.02;;;5.88;;
34200;SDS011;20469;55.638;37.670;2022-10-19T16:10:04;7.00;;;5.00;;
34200;SDS011;20469;55.638;37.670;2022-10-19T16:12:33;8.57;;;4.80;;
34200;SDS011;20469;55.638;37.670;2022-10-19T16:15:03;6.15;;;3.95;;
34200;SDS011;20469;55.638;37.670;2022-10-19T16:17:31;9.32;;;5.03;;
34200;SDS011;20469;55.638;37.670;2022-10-19T16:20:00;5.20;;;4.00;;
34200;SDS011;20469;55.638;37.670;2022-10-19T16:22:28;7.25;;;4.30;;
34200;SDS011;20469;55.638;37.670;2022-10-19T16:24:56;6.93;;;3.88;;
34200;SDS011;20469;55.638;37.670;2022-10-19T16:27:23;6.68;;;4.38;;
34200;SDS011;20469;55.638;37.670;2022-10-19T16:29:51;5.50;;;3.92;;